createdAt,value
2018-03-16T00:00:01.522Z,27.80
2018-03-16T00:02:36.033Z,25.57
2018-03-16T00:05:10.393Z,22.63
2018-03-16T00:07:44.751Z,23.17
2018-03-16T00:10:19.766Z,24.37
2018-03-16T00:12:53.595Z,23.53
2018-03-16T00:15:27.176Z,24.23
2018-03-16T00:18:01.651Z,25.60
2018-03-16T00:20:35.831Z,23.80
2018-03-16T00:23:10.028Z,26.10
2018-03-16T00:25:44.623Z,25.20
2018-03-16T00:28:18.385Z,27.60
2018-03-16T00:30:51.771Z,25.33
2018-03-16T00:33:26.544Z,26.73
2018-03-16T00:36:00.460Z,26.73
2018-03-16T00:38:34.926Z,24.63
2018-03-16T00:41:08.702Z,26.87
2018-03-16T00:43:42.633Z,25.13
2018-03-16T00:46:16.435Z,23.77
2018-03-16T00:48:50.259Z,25.90
2018-03-16T00:51:24.090Z,26.43
2018-03-16T00:53:57.557Z,27.43
2018-03-16T00:56:31.477Z,24.57
2018-03-16T00:59:05.249Z,26.07
2018-03-16T01:01:38.686Z,24.07
2018-03-16T01:04:12.809Z,28.27
2018-03-16T01:06:46.533Z,27.57
2018-03-16T01:09:20.764Z,24.33
2018-03-16T01:11:55.411Z,23.57
2018-03-16T01:14:29.249Z,24.90
2018-03-16T01:17:03.129Z,25.10
2018-03-16T01:19:36.880Z,24.17
2018-03-16T01:22:12.278Z,24.63
2018-03-16T01:24:45.652Z,23.80
2018-03-16T01:27:20.798Z,25.27
2018-03-16T01:29:55.767Z,26.03
2018-03-16T01:32:29.552Z,24.87
2018-03-16T01:35:03.210Z,25.63
2018-03-16T01:37:36.547Z,27.30
2018-03-16T01:40:10.673Z,24.80
2018-03-16T01:42:45.614Z,23.57
2018-03-16T01:45:18.922Z,24.77
2018-03-16T01:47:53.133Z,26.43
2018-03-16T01:50:27.775Z,29.17
2018-03-16T01:53:09.888Z,26.70
2018-03-16T01:55:43.353Z,27.63
2018-03-16T01:58:17.103Z,25.47
2018-03-16T02:00:50.605Z,26.70
2018-03-16T02:03:24.440Z,25.67
2018-03-16T02:05:58.872Z,27.60
2018-03-16T02:08:32.323Z,31.07
2018-03-16T02:11:05.936Z,28.40
2018-03-16T02:13:39.747Z,28.23
2018-03-16T02:16:13.219Z,27.77
2018-03-16T02:18:46.528Z,29.43
2018-03-16T02:21:22.204Z,29.90
2018-03-16T02:23:55.945Z,28.90
2018-03-16T02:26:30.530Z,31.03
2018-03-16T02:29:05.228Z,31.20
2018-03-16T02:31:38.863Z,33.50
2018-03-16T02:34:12.307Z,30.53
2018-03-16T02:36:45.704Z,30.07
2018-03-16T02:39:19.290Z,31.87
2018-03-16T02:41:52.882Z,29.80
2018-03-16T02:44:27.686Z,29.30
2018-03-16T02:47:01.449Z,30.53
2018-03-16T02:49:35.183Z,29.77
2018-03-16T02:52:08.878Z,30.67
2018-03-16T02:54:43.179Z,30.17
2018-03-16T02:57:18.933Z,29.13
2018-03-16T02:59:54.151Z,29.73
2018-03-16T03:02:27.409Z,29.87
2018-03-16T03:05:01.320Z,31.47
2018-03-16T03:07:35.136Z,33.87
2018-03-16T03:10:08.471Z,29.83
2018-03-16T03:12:42.271Z,34.03
2018-03-16T03:15:15.955Z,31.93
2018-03-16T03:17:49.816Z,29.63
2018-03-16T03:20:23.751Z,32.83
2018-03-16T03:22:57.713Z,33.00
2018-03-16T03:25:31.461Z,30.83
2018-03-16T03:28:05.163Z,28.60
2018-03-16T03:30:38.609Z,30.03
2018-03-16T03:33:12.490Z,30.80
2018-03-16T03:35:46.049Z,31.80
2018-03-16T03:38:21.128Z,31.47
2018-03-16T03:40:56.175Z,28.50
2018-03-16T03:43:29.810Z,32.20
2018-03-16T03:46:03.206Z,32.53
2018-03-16T03:48:37.486Z,30.70
2018-03-16T03:51:10.844Z,29.13
2018-03-16T03:53:45.614Z,31.10
2018-03-16T03:56:19.434Z,33.07
2018-03-16T03:58:52.773Z,35.23
2018-03-16T04:01:26.441Z,35.23
2018-03-16T04:04:00.410Z,31.37
2018-03-16T04:06:35.369Z,32.10
2018-03-16T04:09:09.100Z,33.57
2018-03-16T04:11:43.727Z,35.93
2018-03-16T04:14:18.566Z,33.90
2018-03-16T04:16:52.298Z,31.03
2018-03-16T04:19:26.312Z,30.73
2018-03-16T04:21:59.623Z,32.77
2018-03-16T04:24:33.698Z,35.77
2018-03-16T04:27:08.061Z,34.60
2018-03-16T04:29:41.668Z,34.13
2018-03-16T04:32:15.437Z,35.83
2018-03-16T04:34:49.684Z,36.23
2018-03-16T04:37:23.042Z,37.30
2018-03-16T04:39:56.818Z,34.30
2018-03-16T04:42:30.661Z,33.47
2018-03-16T04:45:05.191Z,34.87
2018-03-16T04:47:38.676Z,34.57
2018-03-16T04:50:12.301Z,32.40
2018-03-16T04:52:47.739Z,33.50
2018-03-16T04:55:22.001Z,32.27
2018-03-16T04:57:55.754Z,30.27
2018-03-16T05:00:29.738Z,31.43
2018-03-16T05:03:03.034Z,34.30
2018-03-16T05:05:36.846Z,34.73
2018-03-16T05:08:10.490Z,35.03
2018-03-16T05:10:43.785Z,34.27
2018-03-16T05:13:17.648Z,35.80
2018-03-16T05:15:51.299Z,36.33
2018-03-16T05:18:25.678Z,38.77
2018-03-16T05:20:59.670Z,35.83
2018-03-16T05:23:33.379Z,34.67
2018-03-16T05:26:06.758Z,35.50
2018-03-16T05:28:40.655Z,35.67
2018-03-16T05:31:14.594Z,36.33
2018-03-16T05:33:48.197Z,30.87
2018-03-16T05:36:24.200Z,31.33
2018-03-16T05:38:58.110Z,28.07
2018-03-16T05:41:31.580Z,30.60
2018-03-16T05:44:05.487Z,31.77
2018-03-16T05:46:40.336Z,32.37
2018-03-16T05:49:17.421Z,32.53
2018-03-16T05:51:50.869Z,30.17
2018-03-16T05:54:24.444Z,29.53
2018-03-16T05:56:59.497Z,28.57
2018-03-16T05:59:39.652Z,31.13
2018-03-16T06:02:13.190Z,37.03
2018-03-16T06:04:47.037Z,35.97
2018-03-16T06:07:20.560Z,37.07
2018-03-16T06:09:54.184Z,37.27
2018-03-16T06:12:29.712Z,36.83
2018-03-16T06:15:06.442Z,36.27
2018-03-16T06:17:39.946Z,29.83
2018-03-16T06:20:14.047Z,30.63
2018-03-16T06:22:47.644Z,32.40
2018-03-16T06:25:23.625Z,33.10
2018-03-16T06:27:58.906Z,31.33
2018-03-16T06:30:32.614Z,31.23
2018-03-16T06:33:06.388Z,33.53
2018-03-16T06:35:40.220Z,32.13
2018-03-16T06:38:14.720Z,33.00
2018-03-16T06:40:52.542Z,32.70
2018-03-16T06:43:26.137Z,32.30
2018-03-16T06:46:00.157Z,33.03
2018-03-16T06:48:36.108Z,32.97
2018-03-16T06:51:09.828Z,32.17
2018-03-16T06:53:45.181Z,34.93
2018-03-16T06:56:28.532Z,33.53
2018-03-16T06:59:05.817Z,31.83
2018-03-16T07:01:41.197Z,29.03
2018-03-16T07:04:17.608Z,32.77
2018-03-16T07:06:52.788Z,36.00
2018-03-16T07:12:10.975Z,30.60
2018-03-16T07:14:45.609Z,35.60
2018-03-16T07:17:22.933Z,36.07
2018-03-16T07:19:57.991Z,33.07
2018-03-16T07:22:33.460Z,33.47
2018-03-16T07:25:08.173Z,35.27
2018-03-16T07:27:43.920Z,33.17
2018-03-16T07:30:18.057Z,34.63
2018-03-16T07:32:51.814Z,35.03
2018-03-16T07:35:28.033Z,37.40
2018-03-16T07:38:02.059Z,32.47
2018-03-16T07:40:36.003Z,34.27
2018-03-16T07:43:10.134Z,32.93
2018-03-16T07:45:48.404Z,31.40
2018-03-16T07:48:25.793Z,32.30
2018-03-16T07:51:01.403Z,31.83
2018-03-16T07:53:35.466Z,35.83
2018-03-16T07:56:09.860Z,37.10
2018-03-16T07:58:43.744Z,32.83
2018-03-16T08:01:17.433Z,33.43
2018-03-16T08:03:51.417Z,37.27
2018-03-16T08:06:25.085Z,33.23
2018-03-16T08:08:59.283Z,32.93
2018-03-16T08:11:38.549Z,30.30
2018-03-16T08:14:12.566Z,31.77
2018-03-16T08:16:50.713Z,35.80
2018-03-16T08:19:32.015Z,33.90
2018-03-16T08:22:12.430Z,31.93
2018-03-16T08:24:48.224Z,32.97
2018-03-16T08:27:32.429Z,33.10
2018-03-16T08:30:13.840Z,33.33
2018-03-16T08:33:09.928Z,34.80
2018-03-16T08:35:43.887Z,32.33
2018-03-16T08:38:20.421Z,37.00
2018-03-16T08:40:57.979Z,36.67
2018-03-16T08:43:32.406Z,34.53
2018-03-16T08:46:07.485Z,34.33
2018-03-16T08:48:49.266Z,31.47
2018-03-16T08:51:30.283Z,34.40
2018-03-16T08:54:11.579Z,34.07
2018-03-16T08:56:52.789Z,32.57
2018-03-16T08:59:28.225Z,31.73
2018-03-16T09:02:03.525Z,35.57
2018-03-16T09:04:44.698Z,31.37
2018-03-16T09:07:24.267Z,27.90
2018-03-16T09:09:57.983Z,32.27
2018-03-16T09:12:34.741Z,30.43
2018-03-16T09:15:14.968Z,33.20
2018-03-16T09:17:48.980Z,30.33
2018-03-16T09:20:22.308Z,30.77
2018-03-16T09:22:56.118Z,30.40
2018-03-16T09:25:30.197Z,30.00
2018-03-16T09:28:03.984Z,30.87
2018-03-16T09:33:54.300Z,30.07
2018-03-16T09:36:34.769Z,32.87
2018-03-16T09:39:15.281Z,34.13
2018-03-16T09:41:49.233Z,32.70
2018-03-16T09:44:23.031Z,31.87
2018-03-16T09:46:56.913Z,34.67
2018-03-16T09:49:31.091Z,32.27
2018-03-16T09:52:05.705Z,31.53
2018-03-16T09:54:47.919Z,31.20
2018-03-16T09:57:44.614Z,30.53
2018-03-16T10:00:26.245Z,31.47
2018-03-16T10:02:59.505Z,29.33
2018-03-16T10:05:42.999Z,31.37
2018-03-16T10:08:19.544Z,28.27
2018-03-16T10:10:56.091Z,27.27
2018-03-16T10:13:29.590Z,27.73
2018-03-16T10:16:03.708Z,26.33
2018-03-16T10:18:44.283Z,25.07
2018-03-16T10:21:19.355Z,25.73
2018-03-16T10:23:54.133Z,23.63
2018-03-16T10:29:28.490Z,20.47
2018-03-16T10:32:02.335Z,19.83
2018-03-16T10:34:38.580Z,19.07
2018-03-16T10:37:23.508Z,18.03
2018-03-16T10:40:00.547Z,18.60
2018-03-16T10:42:40.180Z,18.53
2018-03-16T10:45:29.374Z,18.53
2018-03-16T10:48:07.538Z,18.90
2018-03-16T10:50:49.764Z,16.53
2018-03-16T10:53:23.497Z,18.33
2018-03-16T10:56:15.517Z,17.23
2018-03-16T11:06:09.740Z,16.17
2018-03-16T11:08:46.342Z,15.83
2018-03-16T11:11:20.706Z,15.97
2018-03-16T11:13:55.186Z,16.43
2018-03-16T11:16:35.045Z,16.83
2018-03-16T11:19:15.421Z,16.67
2018-03-16T11:22:10.697Z,16.50
2018-03-16T11:28:35.678Z,15.97
2018-03-16T11:40:51.740Z,16.20
2018-03-16T11:43:28.999Z,20.47
2018-03-16T11:55:35.904Z,15.00
2018-03-16T11:58:10.214Z,16.60
2018-03-16T12:03:53.467Z,14.30
2018-03-16T12:06:30.136Z,11.77
2018-03-16T12:09:04.773Z,12.47
2018-03-16T12:11:39.439Z,14.80
2018-03-16T12:14:13.404Z,13.47
2018-03-16T12:16:55.966Z,12.20
2018-03-16T12:19:31.764Z,11.30
2018-03-16T12:22:10.962Z,10.60
2018-03-16T12:24:44.545Z,11.30
2018-03-16T12:27:18.603Z,10.70
2018-03-16T12:29:52.609Z,12.20
2018-03-16T12:32:27.047Z,12.90
2018-03-16T12:35:24.281Z,12.97
2018-03-16T12:42:22.554Z,13.53
2018-03-16T12:45:03.566Z,13.70
2018-03-16T12:47:39.191Z,13.07
2018-03-16T12:51:06.640Z,12.93
2018-03-16T12:57:39.109Z,14.47
2018-03-16T13:00:14.379Z,14.87
2018-03-16T13:02:57.903Z,16.60
2018-03-16T13:05:37.375Z,14.00
2018-03-16T13:08:19.895Z,16.20
2018-03-16T13:10:57.352Z,15.83
2018-03-16T13:13:30.818Z,16.17
2018-03-16T13:16:20.563Z,16.47
2018-03-16T13:18:56.376Z,14.30
2018-03-16T13:21:30.441Z,14.57
2018-03-16T13:26:42.112Z,16.93
2018-03-16T13:29:16.940Z,16.27
2018-03-16T13:31:52.306Z,15.53
2018-03-16T13:34:29.455Z,15.43
2018-03-16T13:37:09.464Z,15.57
2018-03-16T13:39:53.244Z,14.83
2018-03-16T13:42:31.842Z,14.83
2018-03-16T13:49:24.251Z,16.43
2018-03-16T13:51:58.414Z,17.20
2018-03-16T14:11:19.834Z,17.60
2018-03-16T14:13:56.169Z,18.03
2018-03-16T14:16:30.974Z,18.77
2018-03-16T14:19:14.547Z,22.17
2018-03-16T14:21:48.263Z,21.40
2018-03-16T14:24:27.243Z,20.27
2018-03-16T14:27:13.857Z,18.77
2018-03-16T14:29:52.179Z,20.93
2018-03-16T14:32:26.754Z,18.67
2018-03-16T14:35:03.787Z,20.47
2018-03-16T14:37:39.874Z,10.97
2018-03-16T14:41:18.278Z,12.27
2018-03-16T14:43:52.179Z,22.47
2018-03-16T14:46:29.520Z,21.63
2018-03-16T14:49:03.021Z,26.27
2018-03-16T14:51:40.423Z,20.30
2018-03-16T14:54:15.384Z,20.97
2018-03-16T14:59:57.230Z,20.63
2018-03-16T15:02:31.203Z,23.70
2018-03-16T15:05:15.717Z,20.00
2018-03-16T15:07:55.077Z,20.83
2018-03-16T15:13:37.768Z,20.70
2018-03-16T15:16:14.708Z,21.47
2018-03-16T15:19:44.816Z,23.40
2018-03-16T15:22:18.566Z,22.53
2018-03-16T15:24:54.046Z,20.90
2018-03-16T15:27:30.596Z,21.23
2018-03-16T15:30:16.695Z,23.13
2018-03-16T15:32:52.609Z,26.10
2018-03-16T15:35:45.649Z,21.57
2018-03-16T15:38:20.180Z,18.73
2018-03-16T15:41:45.036Z,20.80
2018-03-16T15:45:00.933Z,19.30
2018-03-16T15:47:52.630Z,20.37
2018-03-16T15:53:16.612Z,18.87
2018-03-16T15:55:52.601Z,17.60
2018-03-16T15:58:34.324Z,18.43
2018-03-16T16:01:10.128Z,21.27
2018-03-16T16:03:44.113Z,18.33
2018-03-16T16:06:18.153Z,16.57
2018-03-16T16:08:59.907Z,19.57
2018-03-16T16:11:50.057Z,18.50
2018-03-16T16:14:28.652Z,20.77
2018-03-16T16:17:03.104Z,20.23
2018-03-16T16:19:50.195Z,21.73
2018-03-16T16:22:25.512Z,21.00
2018-03-16T16:25:00.884Z,20.63
2018-03-16T16:27:36.393Z,19.80
2018-03-16T16:30:31.964Z,21.73
2018-03-16T16:33:05.975Z,21.83
2018-03-16T16:38:39.297Z,17.63
2018-03-16T16:41:18.879Z,20.33
2018-03-16T16:44:02.305Z,19.03
2018-03-16T16:46:38.860Z,22.77
2018-03-16T16:49:19.830Z,20.63
2018-03-16T16:51:56.037Z,20.47
2018-03-16T16:57:57.572Z,19.43
2018-03-16T17:00:32.377Z,24.37
2018-03-16T17:03:07.581Z,19.27
2018-03-16T17:05:44.615Z,19.47
2018-03-16T17:08:20.011Z,19.23
2018-03-16T17:10:53.770Z,18.67
2018-03-16T17:13:40.959Z,20.80
2018-03-16T17:16:15.527Z,17.63
2018-03-16T17:18:56.740Z,20.40
2018-03-16T17:21:30.745Z,20.00
2018-03-16T17:24:07.635Z,21.87
2018-03-16T17:26:41.664Z,18.63
2018-03-16T17:29:21.185Z,23.60
2018-03-16T17:32:00.447Z,19.87
2018-03-16T17:34:38.596Z,21.10
2018-03-16T17:37:17.936Z,17.07
2018-03-16T17:39:51.833Z,17.50
2018-03-16T17:42:29.179Z,16.43
2018-03-16T17:45:03.929Z,17.03
2018-03-16T17:47:42.411Z,17.47
2018-03-16T17:50:18.561Z,22.90
2018-03-16T17:52:56.356Z,22.33
2018-03-16T17:56:02.626Z,16.93
2018-03-16T18:02:03.624Z,18.63
2018-03-16T18:04:38.948Z,16.23
2018-03-16T18:07:20.573Z,18.73
2018-03-16T18:09:55.402Z,17.23
2018-03-16T18:12:51.912Z,19.03
2018-03-16T18:15:43.424Z,19.80
2018-03-16T18:18:17.790Z,19.67
2018-03-16T18:21:00.455Z,20.97
2018-03-16T18:23:34.471Z,17.93
2018-03-16T18:26:09.190Z,19.67
2018-03-16T18:28:44.875Z,18.90
2018-03-16T18:31:18.400Z,19.50
2018-03-16T18:33:52.542Z,20.87
2018-03-16T18:36:42.833Z,18.00
2018-03-16T18:39:28.539Z,20.23
2018-03-16T18:42:05.064Z,16.83
2018-03-16T18:44:41.892Z,15.37
2018-03-16T18:47:18.266Z,18.43
2018-03-16T18:49:56.576Z,18.30
2018-03-16T18:52:36.143Z,17.27
2018-03-16T18:55:30.956Z,23.17
2018-03-16T18:58:20.049Z,16.37
2018-03-16T19:00:59.599Z,19.63
2018-03-16T19:03:34.324Z,18.50
2018-03-16T19:09:04.316Z,22.57
2018-03-16T19:11:40.859Z,18.30
2018-03-16T19:14:15.459Z,19.23
2018-03-16T19:16:51.467Z,17.40
2018-03-16T19:19:31.472Z,20.57
2018-03-16T19:22:05.646Z,18.90
2018-03-16T19:24:39.973Z,18.03
2018-03-16T19:27:20.353Z,17.07
2018-03-16T19:29:55.951Z,17.43
2018-03-16T19:32:36.873Z,16.63
2018-03-16T19:35:18.125Z,15.97
2018-03-16T19:37:55.868Z,16.63
2018-03-16T19:40:29.981Z,17.27
2018-03-16T19:43:23.685Z,18.13
2018-03-16T19:46:02.772Z,15.20
2018-03-16T19:51:57.088Z,16.60
2018-03-16T19:54:39.740Z,14.87
2018-03-16T19:57:38.963Z,16.17
2018-03-16T20:00:19.031Z,16.20
2018-03-16T20:02:59.173Z,19.47
2018-03-16T20:05:38.382Z,16.33
2018-03-16T20:08:17.442Z,15.50
2018-03-16T20:10:57.070Z,15.20
2018-03-16T20:13:36.828Z,15.77
2018-03-16T20:16:16.038Z,16.00
2018-03-16T20:21:51.272Z,16.30
2018-03-16T20:24:32.923Z,14.07
2018-03-16T20:27:14.357Z,13.50
2018-03-16T20:29:54.934Z,13.13
2018-03-16T20:32:36.526Z,16.83
2018-03-16T20:35:19.169Z,15.77
2018-03-16T20:38:00.897Z,13.43
2018-03-16T20:40:41.081Z,13.53
2018-03-16T20:43:20.727Z,12.30
2018-03-16T20:46:01.195Z,12.43
2018-03-16T20:48:42.557Z,13.90
2018-03-16T20:51:22.172Z,12.47
2018-03-16T20:54:02.306Z,13.40
2018-03-16T20:56:41.629Z,13.93
2018-03-16T20:59:23.248Z,14.37
2018-03-16T21:02:02.779Z,12.03
2018-03-16T21:04:43.640Z,13.47
2018-03-16T21:07:22.640Z,12.47
2018-03-16T21:10:03.168Z,14.80
2018-03-16T21:12:46.018Z,14.17
2018-03-16T21:15:25.181Z,14.13
2018-03-16T21:18:06.715Z,12.43
2018-03-16T21:20:50.704Z,13.83
2018-03-16T21:23:42.573Z,12.90
2018-03-16T21:26:25.796Z,13.13
2018-03-16T21:29:06.102Z,13.13
2018-03-16T21:31:47.245Z,14.97
2018-03-16T21:34:28.127Z,12.97
2018-03-16T21:37:07.492Z,13.53
2018-03-16T21:39:48.266Z,12.07
2018-03-16T21:42:28.747Z,12.60
2018-03-16T21:45:11.121Z,12.30
2018-03-16T21:47:50.148Z,13.63
2018-03-16T21:50:43.434Z,12.23
2018-03-16T21:53:23.477Z,12.20
2018-03-16T21:56:02.967Z,14.23
2018-03-16T21:58:43.436Z,12.27
2018-03-16T22:01:23.779Z,13.00
2018-03-16T22:04:04.109Z,11.27
2018-03-16T22:06:47.851Z,12.83
2018-03-16T22:09:28.165Z,13.30
2018-03-16T22:12:07.391Z,12.50
2018-03-16T22:14:46.345Z,13.57
2018-03-16T22:17:25.233Z,12.67
2018-03-16T22:20:07.276Z,12.47
2018-03-16T22:22:47.001Z,14.00
2018-03-16T22:25:26.461Z,13.50
2018-03-16T22:28:06.110Z,13.83
2018-03-16T22:30:45.135Z,12.90
2018-03-16T22:33:26.763Z,12.03
2018-03-16T22:36:08.799Z,11.67
2018-03-16T22:38:48.077Z,12.33
2018-03-16T22:41:32.572Z,12.50
2018-03-16T22:44:13.092Z,12.27
2018-03-16T22:46:52.037Z,11.80
2018-03-16T22:49:31.757Z,11.40
2018-03-16T22:52:11.804Z,10.90
2018-03-16T22:54:52.938Z,11.27
2018-03-16T22:57:32.123Z,12.93
2018-03-16T23:00:12.272Z,12.07
2018-03-16T23:02:52.352Z,12.80
2018-03-16T23:05:31.482Z,10.93
2018-03-16T23:08:12.717Z,11.03
2018-03-16T23:10:53.218Z,10.93
2018-03-16T23:13:32.059Z,11.90
2018-03-16T23:16:11.673Z,11.03
2018-03-16T23:18:54.098Z,10.60
2018-03-16T23:21:33.762Z,13.27
2018-03-16T23:24:12.594Z,12.23
2018-03-16T23:26:53.731Z,13.00
2018-03-16T23:29:33.448Z,11.83
2018-03-16T23:32:14.210Z,11.13
2018-03-16T23:34:53.554Z,11.47
2018-03-16T23:37:35.039Z,12.23
2018-03-16T23:40:16.631Z,11.80
2018-03-16T23:42:55.505Z,12.40
2018-03-16T23:45:34.544Z,11.27
2018-03-16T23:48:14.030Z,11.27
2018-03-16T23:50:53.054Z,11.20
2018-03-16T23:53:35.288Z,12.20
2018-03-16T23:56:15.091Z,12.53
2018-03-16T23:58:56.496Z,11.07
